Mandoudi — SV3198 — position and weather

sailwx.info

Track history (hours):
 
Tides and Currents Weather Stations Pressure Air Temp Water Temp Dewpoint Dewpoint Depression Visibility Wind Speed Wind Dir Waves Ship Positions

Mandoudi

Last reported at 2014-Sep-18 07:33 UTC. Time now 2014-Sep-18 07:40 UTC.
Position N 38°02' E 023°31'.

Length 60 m; draft 4.6 m.

Type: Ship (hazmat cat A). MMSI: 237470200.

Date/timePositionNaut miles runAvg speedWind from/ knotsBaromVisibWave heightAir tempDewpointWater temp
2014-Sep-18 07:33N 38°02' E 023°31'0 0.0
2014-Sep-18 06:27N 38°02' E 023°31'0 0.0
2014-Sep-18 05:17N 38°02' E 023°31'3 3.3
2014-Sep-18 04:30N 38°00' E 023°33'4 4.3
2014-Sep-18 03:33N 37°58' E 023°37'0 0.0
2014-Sep-18 02:33N 37°58' E 023°37'0 0.0
2014-Sep-18 01:33N 37°58' E 023°37'0 0.0
2014-Sep-18 00:33N 37°58' E 023°37'0 0.0
2014-Sep-17 23:33N 37°58' E 023°37'0 0.0
2014-Sep-17 22:33N 37°58' E 023°37'0 0.0
2014-Sep-17 21:33N 37°58' E 023°37'0 0.0
2014-Sep-17 20:33N 37°58' E 023°37'0 0.0
2014-Sep-17 19:33N 37°58' E 023°37'0 0.0
2014-Sep-17 18:33N 37°58' E 023°37'0 0.0
2014-Sep-17 17:33N 37°58' E 023°37'0 0.0
2014-Sep-17 16:33N 37°58' E 023°37'0 0.0
2014-Sep-17 15:33N 37°58' E 023°37'0 0.0
2014-Sep-17 14:33N 37°58' E 023°37'0 0.0
2014-Sep-17 13:33N 37°58' E 023°37'0 0.0
2014-Sep-17 12:33N 37°58' E 023°37'0 0.0
2014-Sep-17 11:33N 37°58' E 023°37'0 0.0
2014-Sep-17 10:33N 37°58' E 023°37'1 1.4
2014-Sep-17 09:33N 37°56' E 023°38'0 0.1
2014-Sep-17 08:33N 37°56' E 023°38'0 0.1
2014-Sep-17 07:33N 37°56' E 023°38'0 0.1
2014-Sep-17 06:33N 37°56' E 023°38'0 0.0
2014-Sep-17 05:33N 37°56' E 023°38'0 0.4
2014-Sep-17 04:33N 37°57' E 023°38'0 0.0
2014-Sep-17 03:33N 37°57' E 023°38'2 1.9
2014-Sep-17 02:33N 37°57' E 023°36'1 1.0
2014-Sep-17 01:33N 37°58' E 023°37'0 0.0
2014-Sep-17 00:33N 37°58' E 023°37'0 0.0
2014-Sep-16 23:33N 37°58' E 023°37'0 0.0
2014-Sep-16 22:33N 37°58' E 023°37'0 0.0
2014-Sep-16 21:33N 37°58' E 023°37'0 0.0
2014-Sep-16 20:33N 37°58' E 023°37'0 0.0
2014-Sep-16 19:33N 37°58' E 023°37'0 0.0
2014-Sep-16 18:33N 37°58' E 023°37'0 0.0
2014-Sep-16 17:33N 37°58' E 023°37'0 0.0
2014-Sep-16 16:33N 37°58' E 023°37'0 0.0
2014-Sep-16 15:33N 37°58' E 023°37'0 0.0
2014-Sep-16 14:33N 37°58' E 023°37'0 0.0
2014-Sep-16 13:33N 37°58' E 023°37'0 0.0
2014-Sep-16 12:33N 37°58' E 023°37'0 0.0
2014-Sep-16 11:33N 37°58' E 023°37'0 0.0
2014-Sep-16 10:33N 37°58' E 023°37'0 0.0
2014-Sep-16 09:33N 37°58' E 023°37'1 1.0
2014-Sep-16 08:33N 37°57' E 023°36'2 1.9
2014-Sep-16 07:33N 37°55' E 023°34'0 0.4
2014-Sep-16 06:33N 37°56' E 023°34'0 0.0
2014-Sep-16 05:33N 37°56' E 023°34'0 0.0
2014-Sep-16 04:33N 37°56' E 023°34'2 1.6
2014-Sep-16 03:33N 37°57' E 023°35'5 4.2
2014-Sep-16 02:17N 38°01' E 023°31'0 0.0
2014-Sep-16 01:27N 38°01' E 023°31'0 0.0
2014-Sep-16 00:28N 38°01' E 023°31'0 0.0
2014-Sep-15 23:25N 38°01' E 023°31'0 0.0
2014-Sep-15 22:33N 38°01' E 023°31'0 0.0
2014-Sep-15 21:33N 38°01' E 023°31'0 0.0
2014-Sep-15 20:26N 38°01' E 023°31'0 0.0
2014-Sep-15 19:27N 38°01' E 023°31'1 0.9
2014-Sep-15 18:33N 38°02' E 023°31'0 0.0
2014-Sep-15 17:27N 38°02' E 023°31'0 0.0
2014-Sep-15 16:03N 38°02' E 023°31'0 0.0
2014-Sep-15 15:33N 38°02' E 023°31'0 0.0
2014-Sep-15 14:33N 38°02' E 023°31'0 0.0
2014-Sep-15 13:33N 38°02' E 023°31'2 2.1
2014-Sep-15 12:33N 38°00' E 023°32'6 6.0
2014-Sep-15 11:33N 37°57' E 023°38'0 0.1
2014-Sep-15 10:33N 37°57' E 023°38'0 0.0
2014-Sep-15 09:33N 37°57' E 023°38'0 0.0
2014-Sep-15 08:33N 37°57' E 023°38'3 2.9
2014-Sep-15 07:33N 37°57' E 023°35'0 0.0
2014-Sep-15 06:33N 37°57' E 023°35'2 1.6
2014-Sep-15 05:33N 37°58' E 023°37'0 0.0
2014-Sep-15 04:33N 37°58' E 023°37'0 0.0
2014-Sep-14 16:04N 37°58' E 023°37'0 0.0
2014-Sep-14 15:34N 37°58' E 023°37'0 0.0
2014-Sep-14 14:34N 37°58' E 023°37'0 0.0
2014-Sep-14 13:33N 37°58' E 023°37'0 0.0
2014-Sep-14 12:34N 37°58' E 023°37'0 0.0
2014-Sep-14 11:34N 37°58' E 023°37'0 0.0
2014-Sep-14 10:34N 37°58' E 023°37'0 0.0
2014-Sep-14 09:34N 37°58' E 023°37'0 0.0
2014-Sep-14 08:33N 37°58' E 023°37'0 0.0
2014-Sep-14 07:33N 37°58' E 023°37'0 0.0
2014-Sep-14 06:34N 37°58' E 023°37'0 0.0
2014-Sep-13 08:18N 37°57' E 023°36'2 1.5
2014-Sep-13 07:08N 37°57' E 023°38'0 0.0
2014-Sep-13 06:34N 37°57' E 023°38'0 0.0
2014-Sep-13 05:34N 37°57' E 023°38'0 0.2
2014-Sep-13 04:33N 37°57' E 023°38'0 0.0
2014-Sep-13 03:33N 37°57' E 023°38'0 0.0
2014-Sep-13 02:33N 37°57' E 023°38'2 0.5
2014-Sep-12 23:33N 37°58' E 023°37'0 0.0
2014-Sep-12 22:33N 37°58' E 023°37'0 0.0
2014-Sep-12 21:33N 37°58' E 023°37'0 0.0
2014-Sep-12 20:33N 37°58' E 023°37'0 0.0
2014-Sep-12 19:34N 37°58' E 023°37'0 0.0
2014-Sep-12 18:34N 37°58' E 023°37'0 0.0
2014-Sep-12 17:33N 37°58' E 023°37'0 0.0
2014-Sep-12 16:27N 37°58' E 023°37'0 0.0
2014-Sep-12 15:33N 37°58' E 023°37'0 0.0
2014-Sep-12 14:34N 37°58' E 023°37'0 0.0
2014-Sep-12 13:34N 37°58' E 023°37'0 0.0
2014-Sep-12 12:34N 37°58' E 023°37'0 0.0
2014-Sep-12 11:33N 37°58' E 023°37'0 0.0
2014-Sep-12 10:33N 37°58' E 023°37'0 0.0
2014-Sep-12 09:33N 37°58' E 023°37'0 0.0
2014-Sep-12 08:34N 37°58' E 023°37'0 0.0
2014-Sep-12 07:33N 37°58' E 023°37'0 0.0
2014-Sep-12 06:34N 37°58' E 023°37'0 0.0
2014-Sep-12 05:34N 37°58' E 023°37'0 0.0
2014-Sep-12 04:33N 37°58' E 023°37'2 2.4
2014-Sep-12 03:34N 37°57' E 023°34'5 4.5
2014-Sep-12 02:29N 38°02' E 023°31'0 0.0
2014-Sep-12 01:23N 38°02' E 023°31'0 0.0
2014-Sep-12 00:28N 38°02' E 023°31'0 0.0
2014-Sep-11 23:32N 38°02' E 023°31'0 0.0
2014-Sep-11 22:28N 38°02' E 023°31'0 0.0
2014-Sep-11 21:33N 38°02' E 023°31'0 0.0
2014-Sep-11 20:33N 38°02' E 023°31'0 0.0
2014-Sep-11 19:26N 38°02' E 023°31'1 0.7
2014-Sep-11 18:33N 38°02' E 023°31'0 0.0
2014-Sep-11 17:28N 38°02' E 023°31'0 0.0
2014-Sep-11 16:19N 38°02' E 023°31'0 0.0
2014-Sep-11 15:23N 38°02' E 023°31'0 0.0
2014-Sep-11 14:29N 38°02' E 023°31'0 0.0
2014-Sep-11 13:30N 38°02' E 023°31'1 0.9
2014-Sep-11 12:28N 38°01' E 023°31'0 0.0
2014-Sep-11 11:19N 38°01' E 023°31'1 1.2
2014-Sep-11 10:31N 38°01' E 023°32'5 4.9
2014-Sep-11 09:34N 37°58' E 023°37'0 0.2
2014-Sep-11 08:34N 37°58' E 023°37'0 0.0
2014-Sep-11 07:34N 37°58' E 023°37'0 0.0
2014-Sep-11 06:34N 37°58' E 023°37'0 0.0
2014-Sep-11 05:34N 37°58' E 023°37'0 0.0
2014-Sep-10 23:18N 37°58' E 023°37'0 0.0
2014-Sep-10 22:34N 37°58' E 023°37'0 0.0
2014-Sep-10 21:34N 37°58' E 023°37'0 0.0
2014-Sep-10 20:33N 37°58' E 023°37'0 0.0
2014-Sep-10 19:33N 37°58' E 023°37'0 0.0
2014-Sep-10 18:34N 37°58' E 023°37'0 0.0
2014-Sep-10 17:34N 37°58' E 023°37'0 0.0
2014-Sep-10 16:33N 37°58' E 023°37'0 0.0
2014-Sep-10 15:34N 37°58' E 023°37'0 0.0
2014-Sep-10 14:34N 37°58' E 023°37'0 0.0
2014-Sep-10 13:34N 37°58' E 023°37'0 0.0
2014-Sep-10 12:34N 37°58' E 023°37'2 1.5
2014-Sep-10 11:34N 37°57' E 023°38'0 0.1
2014-Sep-10 10:34N 37°57' E 023°38'0 0.0
2014-Sep-10 09:34N 37°57' E 023°38'0 0.5
2014-Sep-10 08:34N 37°56' E 023°38'0 0.0
2014-Sep-10 07:34N 37°56' E 023°38'0 0.0
2014-Sep-10 06:34N 37°56' E 023°38'0 0.0
2014-Sep-10 05:34N 37°56' E 023°38'1 1.4
2014-Sep-10 04:34N 37°58' E 023°37'0 0.0
2014-Sep-10 03:33N 37°58' E 023°37'0 0.0
2014-Sep-10 02:34N 37°58' E 023°37'0 0.0
2014-Sep-10 01:34N 37°58' E 023°37'0 0.0
2014-Sep-10 00:33N 37°58' E 023°37'0 0.0
2014-Sep-09 23:33N 37°58' E 023°37'0 0.0
2014-Sep-09 22:34N 37°58' E 023°37'0 0.0
2014-Sep-09 21:33N 37°58' E 023°37'0 0.0
2014-Sep-09 20:33N 37°58' E 023°37'0 0.0
2014-Sep-09 19:33N 37°58' E 023°37'0 0.0
2014-Sep-09 18:34N 37°58' E 023°37'0 0.0
2014-Sep-09 17:34N 37°58' E 023°37'0 0.0
2014-Sep-09 16:34N 37°58' E 023°37'0 0.0
2014-Sep-09 15:34N 37°58' E 023°37'4 3.6
2014-Sep-09 14:30N 38°00' E 023°33'3 2.7
2014-Sep-09 13:33N 38°02' E 023°36'0 0.0
2014-Sep-09 12:33N 38°02' E 023°36'0 0.0
2014-Sep-09 11:33N 38°02' E 023°36'0 0.0
2014-Sep-09 10:32N 38°02' E 023°36'2 1.8
2014-Sep-09 09:28N 38°01' E 023°33'2 2.0
2014-Sep-09 08:33N 38°03' E 023°32'3 2.4
2014-Sep-09 07:12N 37°59' E 023°33'4 6.2
2014-Sep-09 06:34N 37°57' E 023°36'1 1.3
2014-Sep-09 05:33N 37°57' E 023°38'0 0.2
2014-Sep-09 04:34N 37°57' E 023°38'0 0.0
2014-Sep-09 03:34N 37°57' E 023°38'0 0.0
2014-Sep-09 02:33N 37°57' E 023°38'2 1.7
2014-Sep-09 01:34N 37°58' E 023°37'0 0.1
2014-Sep-09 00:33N 37°58' E 023°37'0 0.0
2014-Sep-08 23:33N 37°58' E 023°37'0 0.0
2014-Sep-08 22:34N 37°58' E 023°37'0 0.0
2014-Sep-08 21:33N 37°58' E 023°37'0 0.0
2014-Sep-08 20:34N 37°58' E 023°37'0 0.0
2014-Sep-08 19:34N 37°58' E 023°37'0 0.0
2014-Sep-08 18:34N 37°58' E 023°37'1 0.6
2014-Sep-08 17:33N 37°57' E 023°36'4 4.0
2014-Sep-08 16:28N 38°01' E 023°33'1 0.9
2014-Sep-08 15:18N 38°02' E 023°32'0 0.0
2014-Sep-08 14:29N 38°02' E 023°32'0 0.1
2014-Sep-08 13:31N 38°02' E 023°32'2 2.2
2014-Sep-08 12:30N 37°59' E 023°33'5 4.3
2014-Sep-08 11:20N 37°57' E 023°38'0 0.0
2014-Sep-08 10:33N 37°57' E 023°38'0 0.2
2014-Sep-08 08:31N 37°57' E 023°38'  
Track history (hours):
 
Tides and Currents Weather Stations Pressure Air Temp Water Temp Dewpoint Dewpoint Depression Visibility Wind Speed Wind Dir Waves Ship Positions

Mandoudi

Last reported at 2014-Sep-18 07:33 UTC. Time now 2014-Sep-18 07:40 UTC.
Position N 38°02' E 023°31'.

Length 60 m; draft 4.6 m.

Type: Ship (hazmat cat A). MMSI: 237470200.

Date/timePositionNaut miles runAvg speedWind from/ knotsBaromVisibWave heightAir tempDewpointWater temp
2014-Sep-18 07:33N 38°02' E 023°31'0 0.0
2014-Sep-18 06:27N 38°02' E 023°31'0 0.0
2014-Sep-18 05:17N 38°02' E 023°31'3 3.3
2014-Sep-18 04:30N 38°00' E 023°33'4 4.3
2014-Sep-18 03:33N 37°58' E 023°37'0 0.0
2014-Sep-18 02:33N 37°58' E 023°37'0 0.0
2014-Sep-18 01:33N 37°58' E 023°37'0 0.0
2014-Sep-18 00:33N 37°58' E 023°37'0 0.0
2014-Sep-17 23:33N 37°58' E 023°37'0 0.0
2014-Sep-17 22:33N 37°58' E 023°37'0 0.0
2014-Sep-17 21:33N 37°58' E 023°37'0 0.0
2014-Sep-17 20:33N 37°58' E 023°37'0 0.0
2014-Sep-17 19:33N 37°58' E 023°37'0 0.0
2014-Sep-17 18:33N 37°58' E 023°37'0 0.0
2014-Sep-17 17:33N 37°58' E 023°37'0 0.0
2014-Sep-17 16:33N 37°58' E 023°37'0 0.0
2014-Sep-17 15:33N 37°58' E 023°37'0 0.0
2014-Sep-17 14:33N 37°58' E 023°37'0 0.0
2014-Sep-17 13:33N 37°58' E 023°37'0 0.0
2014-Sep-17 12:33N 37°58' E 023°37'0 0.0
2014-Sep-17 11:33N 37°58' E 023°37'0 0.0
2014-Sep-17 10:33N 37°58' E 023°37'1 1.4
2014-Sep-17 09:33N 37°56' E 023°38'0 0.1
2014-Sep-17 08:33N 37°56' E 023°38'0 0.1
2014-Sep-17 07:33N 37°56' E 023°38'0 0.1
2014-Sep-17 06:33N 37°56' E 023°38'0 0.0
2014-Sep-17 05:33N 37°56' E 023°38'0 0.4
2014-Sep-17 04:33N 37°57' E 023°38'0 0.0
2014-Sep-17 03:33N 37°57' E 023°38'2 1.9
2014-Sep-17 02:33N 37°57' E 023°36'1 1.0
2014-Sep-17 01:33N 37°58' E 023°37'0 0.0
2014-Sep-17 00:33N 37°58' E 023°37'0 0.0
2014-Sep-16 23:33N 37°58' E 023°37'0 0.0
2014-Sep-16 22:33N 37°58' E 023°37'0 0.0
2014-Sep-16 21:33N 37°58' E 023°37'0 0.0
2014-Sep-16 20:33N 37°58' E 023°37'0 0.0
2014-Sep-16 19:33N 37°58' E 023°37'0 0.0
2014-Sep-16 18:33N 37°58' E 023°37'0 0.0
2014-Sep-16 17:33N 37°58' E 023°37'0 0.0
2014-Sep-16 16:33N 37°58' E 023°37'0 0.0
2014-Sep-16 15:33N 37°58' E 023°37'0 0.0
2014-Sep-16 14:33N 37°58' E 023°37'0 0.0
2014-Sep-16 13:33N 37°58' E 023°37'0 0.0
2014-Sep-16 12:33N 37°58' E 023°37'0 0.0
2014-Sep-16 11:33N 37°58' E 023°37'0 0.0
2014-Sep-16 10:33N 37°58' E 023°37'0 0.0
2014-Sep-16 09:33N 37°58' E 023°37'1 1.0
2014-Sep-16 08:33N 37°57' E 023°36'2 1.9
2014-Sep-16 07:33N 37°55' E 023°34'0 0.4
2014-Sep-16 06:33N 37°56' E 023°34'0 0.0
2014-Sep-16 05:33N 37°56' E 023°34'0 0.0
2014-Sep-16 04:33N 37°56' E 023°34'2 1.6
2014-Sep-16 03:33N 37°57' E 023°35'5 4.2
2014-Sep-16 02:17N 38°01' E 023°31'0 0.0
2014-Sep-16 01:27N 38°01' E 023°31'0 0.0
2014-Sep-16 00:28N 38°01' E 023°31'0 0.0
2014-Sep-15 23:25N 38°01' E 023°31'0 0.0
2014-Sep-15 22:33N 38°01' E 023°31'0 0.0
2014-Sep-15 21:33N 38°01' E 023°31'0 0.0
2014-Sep-15 20:26N 38°01' E 023°31'0 0.0
2014-Sep-15 19:27N 38°01' E 023°31'1 0.9
2014-Sep-15 18:33N 38°02' E 023°31'0 0.0
2014-Sep-15 17:27N 38°02' E 023°31'0 0.0
2014-Sep-15 16:03N 38°02' E 023°31'0 0.0
2014-Sep-15 15:33N 38°02' E 023°31'0 0.0
2014-Sep-15 14:33N 38°02' E 023°31'0 0.0
2014-Sep-15 13:33N 38°02' E 023°31'2 2.1
2014-Sep-15 12:33N 38°00' E 023°32'6 6.0
2014-Sep-15 11:33N 37°57' E 023°38'0 0.1
2014-Sep-15 10:33N 37°57' E 023°38'0 0.0
2014-Sep-15 09:33N 37°57' E 023°38'0 0.0
2014-Sep-15 08:33N 37°57' E 023°38'3 2.9
2014-Sep-15 07:33N 37°57' E 023°35'0 0.0
2014-Sep-15 06:33N 37°57' E 023°35'2 1.6
2014-Sep-15 05:33N 37°58' E 023°37'0 0.0
2014-Sep-15 04:33N 37°58' E 023°37'0 0.0
2014-Sep-14 16:04N 37°58' E 023°37'0 0.0
2014-Sep-14 15:34N 37°58' E 023°37'0 0.0
2014-Sep-14 14:34N 37°58' E 023°37'0 0.0
2014-Sep-14 13:33N 37°58' E 023°37'0 0.0
2014-Sep-14 12:34N 37°58' E 023°37'0 0.0
2014-Sep-14 11:34N 37°58' E 023°37'0 0.0
2014-Sep-14 10:34N 37°58' E 023°37'0 0.0
2014-Sep-14 09:34N 37°58' E 023°37'0 0.0
2014-Sep-14 08:33N 37°58' E 023°37'0 0.0
2014-Sep-14 07:33N 37°58' E 023°37'0 0.0
2014-Sep-14 06:34N 37°58' E 023°37'0 0.0
2014-Sep-13 08:18N 37°57' E 023°36'2 1.5
2014-Sep-13 07:08N 37°57' E 023°38'0 0.0
2014-Sep-13 06:34N 37°57' E 023°38'0 0.0
2014-Sep-13 05:34N 37°57' E 023°38'0 0.2
2014-Sep-13 04:33N 37°57' E 023°38'0 0.0
2014-Sep-13 03:33N 37°57' E 023°38'0 0.0
2014-Sep-13 02:33N 37°57' E 023°38'2 0.5
2014-Sep-12 23:33N 37°58' E 023°37'0 0.0
2014-Sep-12 22:33N 37°58' E 023°37'0 0.0
2014-Sep-12 21:33N 37°58' E 023°37'0 0.0
2014-Sep-12 20:33N 37°58' E 023°37'0 0.0
2014-Sep-12 19:34N 37°58' E 023°37'0 0.0
2014-Sep-12 18:34N 37°58' E 023°37'0 0.0
2014-Sep-12 17:33N 37°58' E 023°37'0 0.0
2014-Sep-12 16:27N 37°58' E 023°37'0 0.0
2014-Sep-12 15:33N 37°58' E 023°37'0 0.0
2014-Sep-12 14:34N 37°58' E 023°37'0 0.0
2014-Sep-12 13:34N 37°58' E 023°37'0 0.0
2014-Sep-12 12:34N 37°58' E 023°37'0 0.0
2014-Sep-12 11:33N 37°58' E 023°37'0 0.0
2014-Sep-12 10:33N 37°58' E 023°37'0 0.0
2014-Sep-12 09:33N 37°58' E 023°37'0 0.0
2014-Sep-12 08:34N 37°58' E 023°37'0 0.0
2014-Sep-12 07:33N 37°58' E 023°37'0 0.0
2014-Sep-12 06:34N 37°58' E 023°37'0 0.0
2014-Sep-12 05:34N 37°58' E 023°37'0 0.0
2014-Sep-12 04:33N 37°58' E 023°37'2 2.4
2014-Sep-12 03:34N 37°57' E 023°34'5 4.5
2014-Sep-12 02:29N 38°02' E 023°31'0 0.0
2014-Sep-12 01:23N 38°02' E 023°31'0 0.0
2014-Sep-12 00:28N 38°02' E 023°31'0 0.0
2014-Sep-11 23:32N 38°02' E 023°31'0 0.0
2014-Sep-11 22:28N 38°02' E 023°31'0 0.0
2014-Sep-11 21:33N 38°02' E 023°31'0 0.0
2014-Sep-11 20:33N 38°02' E 023°31'0 0.0
2014-Sep-11 19:26N 38°02' E 023°31'1 0.7
2014-Sep-11 18:33N 38°02' E 023°31'0 0.0
2014-Sep-11 17:28N 38°02' E 023°31'0 0.0
2014-Sep-11 16:19N 38°02' E 023°31'0 0.0
2014-Sep-11 15:23N 38°02' E 023°31'0 0.0
2014-Sep-11 14:29N 38°02' E 023°31'0 0.0
2014-Sep-11 13:30N 38°02' E 023°31'1 0.9
2014-Sep-11 12:28N 38°01' E 023°31'0 0.0
2014-Sep-11 11:19N 38°01' E 023°31'1 1.2
2014-Sep-11 10:31N 38°01' E 023°32'5 4.9
2014-Sep-11 09:34N 37°58' E 023°37'0 0.2
2014-Sep-11 08:34N 37°58' E 023°37'0 0.0
2014-Sep-11 07:34N 37°58' E 023°37'0 0.0
2014-Sep-11 06:34N 37°58' E 023°37'0 0.0
2014-Sep-11 05:34N 37°58' E 023°37'0 0.0
2014-Sep-10 23:18N 37°58' E 023°37'0 0.0
2014-Sep-10 22:34N 37°58' E 023°37'0 0.0
2014-Sep-10 21:34N 37°58' E 023°37'0 0.0
2014-Sep-10 20:33N 37°58' E 023°37'0 0.0
2014-Sep-10 19:33N 37°58' E 023°37'0 0.0
2014-Sep-10 18:34N 37°58' E 023°37'0 0.0
2014-Sep-10 17:34N 37°58' E 023°37'0 0.0
2014-Sep-10 16:33N 37°58' E 023°37'0 0.0
2014-Sep-10 15:34N 37°58' E 023°37'0 0.0
2014-Sep-10 14:34N 37°58' E 023°37'0 0.0
2014-Sep-10 13:34N 37°58' E 023°37'0 0.0
2014-Sep-10 12:34N 37°58' E 023°37'2 1.5
2014-Sep-10 11:34N 37°57' E 023°38'0 0.1
2014-Sep-10 10:34N 37°57' E 023°38'0 0.0
2014-Sep-10 09:34N 37°57' E 023°38'0 0.5
2014-Sep-10 08:34N 37°56' E 023°38'0 0.0
2014-Sep-10 07:34N 37°56' E 023°38'0 0.0
2014-Sep-10 06:34N 37°56' E 023°38'0 0.0
2014-Sep-10 05:34N 37°56' E 023°38'1 1.4
2014-Sep-10 04:34N 37°58' E 023°37'0 0.0
2014-Sep-10 03:33N 37°58' E 023°37'0 0.0
2014-Sep-10 02:34N 37°58' E 023°37'0 0.0
2014-Sep-10 01:34N 37°58' E 023°37'0 0.0
2014-Sep-10 00:33N 37°58' E 023°37'0 0.0
2014-Sep-09 23:33N 37°58' E 023°37'0 0.0
2014-Sep-09 22:34N 37°58' E 023°37'0 0.0
2014-Sep-09 21:33N 37°58' E 023°37'0 0.0
2014-Sep-09 20:33N 37°58' E 023°37'0 0.0
2014-Sep-09 19:33N 37°58' E 023°37'0 0.0
2014-Sep-09 18:34N 37°58' E 023°37'0 0.0
2014-Sep-09 17:34N 37°58' E 023°37'0 0.0
2014-Sep-09 16:34N 37°58' E 023°37'0 0.0
2014-Sep-09 15:34N 37°58' E 023°37'4 3.6
2014-Sep-09 14:30N 38°00' E 023°33'3 2.7
2014-Sep-09 13:33N 38°02' E 023°36'0 0.0
2014-Sep-09 12:33N 38°02' E 023°36'0 0.0
2014-Sep-09 11:33N 38°02' E 023°36'0 0.0
2014-Sep-09 10:32N 38°02' E 023°36'2 1.8
2014-Sep-09 09:28N 38°01' E 023°33'2 2.0
2014-Sep-09 08:33N 38°03' E 023°32'3 2.4
2014-Sep-09 07:12N 37°59' E 023°33'4 6.2
2014-Sep-09 06:34N 37°57' E 023°36'1 1.3
2014-Sep-09 05:33N 37°57' E 023°38'0 0.2
2014-Sep-09 04:34N 37°57' E 023°38'0 0.0
2014-Sep-09 03:34N 37°57' E 023°38'0 0.0
2014-Sep-09 02:33N 37°57' E 023°38'2 1.7
2014-Sep-09 01:34N 37°58' E 023°37'0 0.1
2014-Sep-09 00:33N 37°58' E 023°37'0 0.0
2014-Sep-08 23:33N 37°58' E 023°37'0 0.0
2014-Sep-08 22:34N 37°58' E 023°37'0 0.0
2014-Sep-08 21:33N 37°58' E 023°37'0 0.0
2014-Sep-08 20:34N 37°58' E 023°37'0 0.0
2014-Sep-08 19:34N 37°58' E 023°37'0 0.0
2014-Sep-08 18:34N 37°58' E 023°37'1 0.6
2014-Sep-08 17:33N 37°57' E 023°36'4 4.0
2014-Sep-08 16:28N 38°01' E 023°33'1 0.9
2014-Sep-08 15:18N 38°02' E 023°32'0 0.0
2014-Sep-08 14:29N 38°02' E 023°32'0 0.1
2014-Sep-08 13:31N 38°02' E 023°32'2 2.2
2014-Sep-08 12:30N 37°59' E 023°33'5 4.3
2014-Sep-08 11:20N 37°57' E 023°38'0 0.0
2014-Sep-08 10:33N 37°57' E 023°38'0 0.2
2014-Sep-08 08:31N 37°57' E 023°38'  

Dump ship's entire track history